Login to view products.
 
Tuesday, June 15, 2021 (16:50 UTC) 16
Al Bateen Executive Airport
ICAO: OMAD
IATA: AZI
  • METAR OMAD 151600Z 10002KT CAVOK 35/15 Q0996 NOSIG=
  • TAF OMAD 151100Z 1512/1618 29011KT 7000 NSC PROB30 1512/1515 4000 DU BECMG 1517/1519 18004KT BECMG 1605/1607 30011KT=

2
Last Updated:
Wind Dir/Speed:
Temperature:
Rel. Humidity:
Pressure:
Visibility: